Ashburn, Missouri
Current Conditions -  °F | °C
As of 4:15 AM on Saturday 25 Oct 2014 (Local Time) from KHAE Reporting Station
Haze Haze  
Wind Chill: 59°   Ceiling: Unl
Heat Index: 59°   Visibility: 5mi
Dew Point: 55°   Wind: 6mph
Humidity: 88%   Direction: 260°W
Pressure: 29.99"   Gusts: NA
Location:  39.54°N, 91.17°W
Report Text: KHAE 250915Z AUTO 26005KT 5SM BR CLR 15/13 A2999 RMK AO2
Loading
Personal Weather Stations






























Interactive Weather Map New forecast layout! Learn more

10-Day Weather Forecast

Advertisements
Track Severe Weather on mobile